KMIE/MIE METAR and TAF weather

Enter ICAO airport designator
Station Type Date Time Source
KMIE METAR 2022/01/29 00:53 UTC NOAA

KMIE 290053Z 35007KT 10SM OVC033 M08/M14 A3026 RMK AO2 SLP256 T10831139


Station Type Date Time Source
KMIE Decoded METAR 2022/01/29 00:53 UTC NOAA

MUNCIE DELAWARE JOHNSON, IN, United States (KMIE) 40-14N 85-24W 285M
Jan 28, 2022 - 07:53 PM EST / 2022.01.29 0053 UTC
Wind: from the N (350 degrees) at 8 MPH (7 KT):0
Visibility: 10 mile(s):0
Sky conditions: overcast
Temperature: 17.1 F (-8.3 C)
Windchill: 6 F (-14 C):1
Dew Point: 7.0 F (-13.9 C)
Relative Humidity: 63%
Pressure (altimeter): 30.26 in. Hg (1024 hPa)
ob: KMIE 290053Z 35007KT 10SM OVC033 M08/M14 A3026 RMK AO2 SLP256 T10831139
cycle: 1

Station Type Date Time Source
KMIE TAF UTC NOAA

Error!

Example: see airport list